Crystalady — ZGBE5 — position and weather

sailwx.info

Track history (hours):
 
Tides and Currents Weather Stations Pressure Air Temp Water Temp Dewpoint Dewpoint Depression Visibility Wind Speed Wind Dir Waves Ship Positions

Crystalady

Last reported at 2017-Feb-03 06:34 UTC. Time now 2017-Feb-21 01:17 UTC.
Position N 43°43' E 007°26'.
Warning: this ship's position is 17 days out of date.

Length 47 m; draft 3.1 m.

Type: Pleasure craft. MMSI: 319026100.

Date/timePositionNaut miles runAvg speedWind from/ knotsBaromVisibWave heightAir tempDewpointWater temp
2017-Feb-03 06:34N 43°43' E 007°26'10 9.6
2017-Feb-03 05:33N 43°40' E 007°39'1312.5
2017-Feb-03 04:33N 43°36' E 007°55'9313.2
2017-Feb-02 21:29N 42°52' E 009°48'36013.2
2017-Feb-01 18:10N 38°36' E 015°21'812.7
2017-Feb-01 17:33N 38°30' E 015°28'1312.7
2017-Feb-01 16:33N 38°21' E 015°39'9 9.3
2017-Feb-01 15:33N 38°12' E 015°37'1211.9
2017-Feb-01 14:33N 37°60' E 015°36'17 0.4
2017-Jan-30 16:20N 37°52' E 015°55'1013.2
2017-Jan-30 15:33N 37°54' E 015°42'1212.3
2017-Jan-30 14:33N 38°05' E 015°34'7 6.9
2017-Jan-30 13:33N 38°11' E 015°33'0 0.0
2017-Jan-30 12:33N 38°11' E 015°33'0 0.0
2017-Jan-30 11:33N 38°11' E 015°33'0 0.0
2017-Jan-30 10:33N 38°11' E 015°33'5 5.1
2017-Jan-30 09:34N 38°15' E 015°38'1211.6
2017-Jan-30 08:33N 38°26' E 015°32'1413.6
2017-Jan-30 07:33N 38°36' E 015°20'1414.1
2017-Jan-30 06:33N 38°46' E 015°08'38912.9
2017-Jan-29 00:31N 43°20' E 009°02'1212.1
2017-Jan-28 23:34N 43°28' E 008°50'1311.7
2017-Jan-28 22:28N 43°36' E 008°37'4510.6
2017-Jan-28 18:16N 43°44' E 007°36'710.6
2017-Jan-28 17:33N 43°43' E 007°26'  
Track history (hours):
 
Tides and Currents Weather Stations Pressure Air Temp Water Temp Dewpoint Dewpoint Depression Visibility Wind Speed Wind Dir Waves Ship Positions

Crystalady

Last reported at 2017-Feb-03 06:34 UTC. Time now 2017-Feb-21 01:17 UTC.
Position N 43°43' E 007°26'.
Warning: this ship's position is 17 days out of date.

Length 47 m; draft 3.1 m.

Type: Pleasure craft. MMSI: 319026100.

Date/timePositionNaut miles runAvg speedWind from/ knotsBaromVisibWave heightAir tempDewpointWater temp
2017-Feb-03 06:34N 43°43' E 007°26'10 9.6
2017-Feb-03 05:33N 43°40' E 007°39'1312.5
2017-Feb-03 04:33N 43°36' E 007°55'9313.2
2017-Feb-02 21:29N 42°52' E 009°48'36013.2
2017-Feb-01 18:10N 38°36' E 015°21'812.7
2017-Feb-01 17:33N 38°30' E 015°28'1312.7
2017-Feb-01 16:33N 38°21' E 015°39'9 9.3
2017-Feb-01 15:33N 38°12' E 015°37'1211.9
2017-Feb-01 14:33N 37°60' E 015°36'17 0.4
2017-Jan-30 16:20N 37°52' E 015°55'1013.2
2017-Jan-30 15:33N 37°54' E 015°42'1212.3
2017-Jan-30 14:33N 38°05' E 015°34'7 6.9
2017-Jan-30 13:33N 38°11' E 015°33'0 0.0
2017-Jan-30 12:33N 38°11' E 015°33'0 0.0
2017-Jan-30 11:33N 38°11' E 015°33'0 0.0
2017-Jan-30 10:33N 38°11' E 015°33'5 5.1
2017-Jan-30 09:34N 38°15' E 015°38'1211.6
2017-Jan-30 08:33N 38°26' E 015°32'1413.6
2017-Jan-30 07:33N 38°36' E 015°20'1414.1
2017-Jan-30 06:33N 38°46' E 015°08'38912.9
2017-Jan-29 00:31N 43°20' E 009°02'1212.1
2017-Jan-28 23:34N 43°28' E 008°50'1311.7
2017-Jan-28 22:28N 43°36' E 008°37'4510.6
2017-Jan-28 18:16N 43°44' E 007°36'710.6
2017-Jan-28 17:33N 43°43' E 007°26'  

Dump ship's entire track history